sensor_id;sensor_type;location;lat;lon;timestamp;P1;durP1;ratioP1;P2;durP2;ratioP2
12675;SDS011;63820;65.654;21.944;2023-08-31T00:02:33;1.20;;;1.10;;
12675;SDS011;63820;65.654;21.944;2023-08-31T00:05:17;1.93;;;1.10;;
12675;SDS011;63820;65.654;21.944;2023-08-31T00:08:01;1.50;;;1.20;;
12675;SDS011;63820;65.654;21.944;2023-08-31T00:10:45;2.23;;;1.23;;
12675;SDS011;63820;65.654;21.944;2023-08-31T00:13:29;1.40;;;1.30;;
12675;SDS011;63820;65.654;21.944;2023-08-31T00:16:13;1.67;;;1.37;;
12675;SDS011;63820;65.654;21.944;2023-08-31T00:18:58;1.40;;;1.30;;
12675;SDS011;63820;65.654;21.944;2023-08-31T00:21:42;1.80;;;1.30;;
12675;SDS011;63820;65.654;21.944;2023-08-31T00:24:27;2.03;;;1.60;;
12675;SDS011;63820;65.654;21.944;2023-08-31T00:27:15;1.77;;;1.40;;
12675;SDS011;63820;65.654;21.944;2023-08-31T00:30:01;2.03;;;1.30;;
12675;SDS011;63820;65.654;21.944;2023-08-31T00:32:46;1.40;;;1.30;;
12675;SDS011;63820;65.654;21.944;2023-08-31T00:35:33;2.10;;;1.30;;
12675;SDS011;63820;65.654;21.944;2023-08-31T00:38:18;1.40;;;1.30;;
12675;SDS011;63820;65.654;21.944;2023-08-31T00:41:03;1.23;;;1.00;;
12675;SDS011;63820;65.654;21.944;2023-08-31T00:43:47;1.07;;;1.00;;
12675;SDS011;63820;65.654;21.944;2023-08-31T00:46:31;1.43;;;1.33;;
12675;SDS011;63820;65.654;21.944;2023-08-31T00:49:16;2.20;;;1.60;;
12675;SDS011;63820;65.654;21.944;2023-08-31T00:52:01;1.53;;;1.43;;
12675;SDS011;63820;65.654;21.944;2023-08-31T00:54:45;1.53;;;1.33;;
12675;SDS011;63820;65.654;21.944;2023-08-31T00:57:29;2.13;;;1.40;;
12675;SDS011;63820;65.654;21.944;2023-08-31T01:00:13;1.53;;;1.40;;
12675;SDS011;63820;65.654;21.944;2023-08-31T01:03:09;1.80;;;1.30;;
12675;SDS011;63820;65.654;21.944;2023-08-31T01:09:28;2.03;;;1.53;;
12675;SDS011;63820;65.654;21.944;2023-08-31T01:13:07;2.43;;;1.47;;
12675;SDS011;63820;65.654;21.944;2023-08-31T01:15:31;2.13;;;1.53;;
12675;SDS011;63820;65.654;21.944;2023-08-31T01:18:16;2.00;;;1.90;;
12675;SDS011;63820;65.654;21.944;2023-08-31T01:24:03;1.93;;;1.73;;
12675;SDS011;63820;65.654;21.944;2023-08-31T01:26:48;1.90;;;1.60;;
12675;SDS011;63820;65.654;21.944;2023-08-31T01:29:32;1.83;;;1.57;;
12675;SDS011;63820;65.654;21.944;2023-08-31T01:32:16;2.60;;;1.63;;
12675;SDS011;63820;65.654;21.944;2023-08-31T01:35:00;4.30;;;1.80;;
12675;SDS011;63820;65.654;21.944;2023-08-31T01:37:49;1.63;;;1.50;;
12675;SDS011;63820;65.654;21.944;2023-08-31T01:40:48;2.33;;;1.60;;
12675;SDS011;63820;65.654;21.944;2023-08-31T01:43:37;2.43;;;1.70;;
12675;SDS011;63820;65.654;21.944;2023-08-31T01:46:24;2.40;;;1.83;;
12675;SDS011;63820;65.654;21.944;2023-08-31T01:49:09;2.33;;;2.00;;
12675;SDS011;63820;65.654;21.944;2023-08-31T01:51:53;1.93;;;1.70;;
12675;SDS011;63820;65.654;21.944;2023-08-31T01:54:37;2.17;;;1.90;;
12675;SDS011;63820;65.654;21.944;2023-08-31T01:57:21;2.77;;;2.00;;
12675;SDS011;63820;65.654;21.944;2023-08-31T02:00:06;2.20;;;2.00;;
12675;SDS011;63820;65.654;21.944;2023-08-31T02:02:51;2.83;;;1.97;;
12675;SDS011;63820;65.654;21.944;2023-08-31T02:05:35;1.60;;;1.50;;
12675;SDS011;63820;65.654;21.944;2023-08-31T02:08:19;3.37;;;2.00;;
12675;SDS011;63820;65.654;21.944;2023-08-31T02:11:03;2.03;;;1.73;;
12675;SDS011;63820;65.654;21.944;2023-08-31T02:13:47;1.90;;;1.70;;
12675;SDS011;63820;65.654;21.944;2023-08-31T02:16:31;2.00;;;1.77;;
12675;SDS011;63820;65.654;21.944;2023-08-31T02:19:15;1.70;;;1.60;;
12675;SDS011;63820;65.654;21.944;2023-08-31T02:21:59;2.27;;;1.70;;
12675;SDS011;63820;65.654;21.944;2023-08-31T02:24:43;2.37;;;1.60;;
12675;SDS011;63820;65.654;21.944;2023-08-31T02:27:28;2.17;;;1.60;;
12675;SDS011;63820;65.654;21.944;2023-08-31T02:30:12;2.23;;;1.70;;
12675;SDS011;63820;65.654;21.944;2023-08-31T02:32:59;2.00;;;1.70;;
12675;SDS011;63820;65.654;21.944;2023-08-31T02:35:43;2.37;;;2.00;;
12675;SDS011;63820;65.654;21.944;2023-08-31T02:38:27;2.40;;;1.80;;
12675;SDS011;63820;65.654;21.944;2023-08-31T02:41:11;2.77;;;1.93;;
12675;SDS011;63820;65.654;21.944;2023-08-31T02:43:56;2.03;;;1.80;;
12675;SDS011;63820;65.654;21.944;2023-08-31T02:46:41;1.83;;;1.57;;
12675;SDS011;63820;65.654;21.944;2023-08-31T02:49:25;1.73;;;1.53;;
12675;SDS011;63820;65.654;21.944;2023-08-31T02:52:09;2.60;;;1.87;;
12675;SDS011;63820;65.654;21.944;2023-08-31T02:54:53;1.83;;;1.60;;
12675;SDS011;63820;65.654;21.944;2023-08-31T02:57:37;1.67;;;1.50;;
12675;SDS011;63820;65.654;21.944;2023-08-31T03:00:21;2.03;;;1.53;;
12675;SDS011;63820;65.654;21.944;2023-08-31T03:03:05;1.90;;;1.57;;
12675;SDS011;63820;65.654;21.944;2023-08-31T03:05:54;2.30;;;1.70;;
12675;SDS011;63820;65.654;21.944;2023-08-31T03:08:38;2.30;;;1.70;;
12675;SDS011;63820;65.654;21.944;2023-08-31T03:11:23;2.40;;;1.70;;
12675;SDS011;63820;65.654;21.944;2023-08-31T03:14:07;1.70;;;1.60;;
12675;SDS011;63820;65.654;21.944;2023-08-31T03:16:53;2.50;;;1.93;;
12675;SDS011;63820;65.654;21.944;2023-08-31T03:19:37;2.37;;;1.77;;
12675;SDS011;63820;65.654;21.944;2023-08-31T03:22:21;1.80;;;1.70;;
12675;SDS011;63820;65.654;21.944;2023-08-31T03:25:05;4.27;;;2.07;;
12675;SDS011;63820;65.654;21.944;2023-08-31T03:27:49;2.77;;;1.70;;
12675;SDS011;63820;65.654;21.944;2023-08-31T03:30:33;1.87;;;1.60;;
12675;SDS011;63820;65.654;21.944;2023-08-31T03:33:17;2.13;;;1.70;;
12675;SDS011;63820;65.654;21.944;2023-08-31T03:36:02;1.70;;;1.60;;
12675;SDS011;63820;65.654;21.944;2023-08-31T03:38:47;2.27;;;1.80;;
12675;SDS011;63820;65.654;21.944;2023-08-31T03:41:31;2.93;;;1.60;;
12675;SDS011;63820;65.654;21.944;2023-08-31T03:44:16;1.30;;;1.20;;
12675;SDS011;63820;65.654;21.944;2023-08-31T03:46:59;1.90;;;1.57;;
12675;SDS011;63820;65.654;21.944;2023-08-31T03:49:43;2.00;;;1.60;;
12675;SDS011;63820;65.654;21.944;2023-08-31T03:52:27;2.03;;;1.50;;
12675;SDS011;63820;65.654;21.944;2023-08-31T03:55:11;1.67;;;1.40;;
12675;SDS011;63820;65.654;21.944;2023-08-31T03:57:55;1.83;;;1.63;;
12675;SDS011;63820;65.654;21.944;2023-08-31T04:00:39;2.17;;;1.87;;
12675;SDS011;63820;65.654;21.944;2023-08-31T04:03:23;1.97;;;1.60;;
12675;SDS011;63820;65.654;21.944;2023-08-31T04:06:07;3.80;;;1.63;;
12675;SDS011;63820;65.654;21.944;2023-08-31T04:08:51;2.20;;;1.90;;
12675;SDS011;63820;65.654;21.944;2023-08-31T04:11:35;2.27;;;1.90;;
12675;SDS011;63820;65.654;21.944;2023-08-31T04:14:19;2.47;;;1.93;;
12675;SDS011;63820;65.654;21.944;2023-08-31T04:17:03;2.60;;;1.90;;
12675;SDS011;63820;65.654;21.944;2023-08-31T04:19:50;2.20;;;2.00;;
12675;SDS011;63820;65.654;21.944;2023-08-31T04:22:34;2.77;;;2.10;;
12675;SDS011;63820;65.654;21.944;2023-08-31T04:25:18;2.53;;;2.10;;
12675;SDS011;63820;65.654;21.944;2023-08-31T04:28:03;2.03;;;1.83;;
12675;SDS011;63820;65.654;21.944;2023-08-31T04:30:47;2.87;;;1.93;;
12675;SDS011;63820;65.654;21.944;2023-08-31T04:33:36;2.50;;;1.83;;
12675;SDS011;63820;65.654;21.944;2023-08-31T04:36:22;2.20;;;1.80;;
12675;SDS011;63820;65.654;21.944;2023-08-31T04:39:06;2.70;;;1.90;;
12675;SDS011;63820;65.654;21.944;2023-08-31T04:41:51;2.23;;;2.00;;
12675;SDS011;63820;65.654;21.944;2023-08-31T04:44:35;2.37;;;2.07;;
12675;SDS011;63820;65.654;21.944;2023-08-31T04:47:19;2.07;;;1.87;;
12675;SDS011;63820;65.654;21.944;2023-08-31T04:50:03;2.57;;;2.17;;
12675;SDS011;63820;65.654;21.944;2023-08-31T04:52:50;2.10;;;1.90;;
12675;SDS011;63820;65.654;21.944;2023-08-31T04:55:34;2.00;;;1.80;;
12675;SDS011;63820;65.654;21.944;2023-08-31T04:58:18;2.43;;;2.00;;
12675;SDS011;63820;65.654;21.944;2023-08-31T05:01:02;2.10;;;1.90;;
12675;SDS011;63820;65.654;21.944;2023-08-31T05:03:47;2.13;;;1.90;;
12675;SDS011;63820;65.654;21.944;2023-08-31T05:06:31;2.33;;;2.10;;
12675;SDS011;63820;65.654;21.944;2023-08-31T05:09:15;1.97;;;1.70;;
12675;SDS011;63820;65.654;21.944;2023-08-31T05:12:00;3.50;;;2.20;;
12675;SDS011;63820;65.654;21.944;2023-08-31T05:14:45;2.40;;;2.20;;
12675;SDS011;63820;65.654;21.944;2023-08-31T05:17:29;1.63;;;1.53;;
12675;SDS011;63820;65.654;21.944;2023-08-31T05:20:14;2.23;;;1.80;;
12675;SDS011;63820;65.654;21.944;2023-08-31T05:22:58;1.93;;;1.60;;
12675;SDS011;63820;65.654;21.944;2023-08-31T05:25:42;1.60;;;1.50;;
12675;SDS011;63820;65.654;21.944;2023-08-31T05:28:27;1.63;;;1.53;;
12675;SDS011;63820;65.654;21.944;2023-08-31T05:31:12;1.67;;;1.53;;
12675;SDS011;63820;65.654;21.944;2023-08-31T05:33:56;2.80;;;1.50;;
12675;SDS011;63820;65.654;21.944;2023-08-31T05:36:40;1.60;;;1.50;;
12675;SDS011;63820;65.654;21.944;2023-08-31T05:39:24;1.60;;;1.50;;
12675;SDS011;63820;65.654;21.944;2023-08-31T05:42:08;1.60;;;1.50;;
12675;SDS011;63820;65.654;21.944;2023-08-31T05:44:52;1.40;;;1.30;;
12675;SDS011;63820;65.654;21.944;2023-08-31T05:47:36;1.73;;;1.40;;
12675;SDS011;63820;65.654;21.944;2023-08-31T05:50:22;1.47;;;1.37;;
12675;SDS011;63820;65.654;21.944;2023-08-31T05:53:06;1.70;;;1.60;;
12675;SDS011;63820;65.654;21.944;2023-08-31T05:55:52;1.67;;;1.57;;
12675;SDS011;63820;65.654;21.944;2023-08-31T05:58:38;1.43;;;1.20;;
12675;SDS011;63820;65.654;21.944;2023-08-31T06:01:22;1.57;;;1.47;;
12675;SDS011;63820;65.654;21.944;2023-08-31T06:04:06;1.60;;;1.50;;
12675;SDS011;63820;65.654;21.944;2023-08-31T06:06:50;2.23;;;1.50;;
12675;SDS011;63820;65.654;21.944;2023-08-31T06:09:37;2.17;;;1.33;;
12675;SDS011;63820;65.654;21.944;2023-08-31T06:12:21;1.63;;;1.43;;
12675;SDS011;63820;65.654;21.944;2023-08-31T06:15:06;1.70;;;1.60;;
12675;SDS011;63820;65.654;21.944;2023-08-31T06:17:53;1.47;;;1.37;;
12675;SDS011;63820;65.654;21.944;2023-08-31T06:20:37;1.40;;;1.30;;
12675;SDS011;63820;65.654;21.944;2023-08-31T06:23:21;1.30;;;1.20;;
12675;SDS011;63820;65.654;21.944;2023-08-31T06:26:05;1.40;;;1.30;;
12675;SDS011;63820;65.654;21.944;2023-08-31T06:28:49;1.43;;;1.30;;
12675;SDS011;63820;65.654;21.944;2023-08-31T06:31:34;1.40;;;1.30;;
12675;SDS011;63820;65.654;21.944;2023-08-31T06:34:18;2.13;;;1.57;;
12675;SDS011;63820;65.654;21.944;2023-08-31T06:37:02;1.40;;;1.30;;
12675;SDS011;63820;65.654;21.944;2023-08-31T06:39:47;1.70;;;1.53;;
12675;SDS011;63820;65.654;21.944;2023-08-31T06:42:31;1.70;;;1.60;;
12675;SDS011;63820;65.654;21.944;2023-08-31T06:45:15;1.60;;;1.50;;
12675;SDS011;63820;65.654;21.944;2023-08-31T06:47:58;1.50;;;1.30;;
12675;SDS011;63820;65.654;21.944;2023-08-31T06:50:43;1.47;;;1.37;;
12675;SDS011;63820;65.654;21.944;2023-08-31T06:53:27;2.10;;;1.50;;
12675;SDS011;63820;65.654;21.944;2023-08-31T06:56:11;1.60;;;1.50;;
12675;SDS011;63820;65.654;21.944;2023-08-31T06:58:55;1.50;;;1.40;;
12675;SDS011;63820;65.654;21.944;2023-08-31T07:01:39;1.80;;;1.60;;
12675;SDS011;63820;65.654;21.944;2023-08-31T07:04:23;1.63;;;1.43;;
12675;SDS011;63820;65.654;21.944;2023-08-31T07:07:06;2.10;;;1.50;;
12675;SDS011;63820;65.654;21.944;2023-08-31T07:09:52;1.60;;;1.50;;
12675;SDS011;63820;65.654;21.944;2023-08-31T07:12:38;1.70;;;1.60;;
12675;SDS011;63820;65.654;21.944;2023-08-31T07:15:22;1.80;;;1.70;;
12675;SDS011;63820;65.654;21.944;2023-08-31T07:18:06;1.67;;;1.57;;
12675;SDS011;63820;65.654;21.944;2023-08-31T07:20:51;1.40;;;1.30;;
12675;SDS011;63820;65.654;21.944;2023-08-31T07:23:35;1.87;;;1.57;;
12675;SDS011;63820;65.654;21.944;2023-08-31T07:26:18;2.23;;;1.40;;
12675;SDS011;63820;65.654;21.944;2023-08-31T07:29:02;1.57;;;1.40;;
12675;SDS011;63820;65.654;21.944;2023-08-31T07:31:48;1.40;;;1.30;;
12675;SDS011;63820;65.654;21.944;2023-08-31T07:34:33;1.67;;;1.43;;
12675;SDS011;63820;65.654;21.944;2023-08-31T07:37:17;1.80;;;1.50;;
12675;SDS011;63820;65.654;21.944;2023-08-31T07:40:01;1.30;;;1.20;;
12675;SDS011;63820;65.654;21.944;2023-08-31T07:42:45;1.60;;;1.50;;
12675;SDS011;63820;65.654;21.944;2023-08-31T07:45:29;1.70;;;1.60;;
12675;SDS011;63820;65.654;21.944;2023-08-31T07:48:13;2.77;;;1.90;;
12675;SDS011;63820;65.654;21.944;2023-08-31T07:50:57;1.97;;;1.80;;
12675;SDS011;63820;65.654;21.944;2023-08-31T07:53:41;2.00;;;1.73;;
12675;SDS011;63820;65.654;21.944;2023-08-31T07:56:26;1.70;;;1.50;;
12675;SDS011;63820;65.654;21.944;2023-08-31T07:59:10;1.70;;;1.60;;
12675;SDS011;63820;65.654;21.944;2023-08-31T08:01:54;1.63;;;1.53;;
12675;SDS011;63820;65.654;21.944;2023-08-31T08:04:38;1.67;;;1.57;;
12675;SDS011;63820;65.654;21.944;2023-08-31T08:07:22;1.50;;;1.40;;
12675;SDS011;63820;65.654;21.944;2023-08-31T08:10:06;1.67;;;1.40;;
12675;SDS011;63820;65.654;21.944;2023-08-31T08:12:51;1.93;;;1.73;;
12675;SDS011;63820;65.654;21.944;2023-08-31T08:15:35;2.27;;;1.60;;
12675;SDS011;63820;65.654;21.944;2023-08-31T08:18:19;1.60;;;1.50;;
12675;SDS011;63820;65.654;21.944;2023-08-31T08:21:03;1.87;;;1.67;;
12675;SDS011;63820;65.654;21.944;2023-08-31T08:23:47;1.63;;;1.50;;
12675;SDS011;63820;65.654;21.944;2023-08-31T08:26:34;2.37;;;1.50;;
12675;SDS011;63820;65.654;21.944;2023-08-31T08:29:18;1.43;;;1.33;;
12675;SDS011;63820;65.654;21.944;2023-08-31T08:32:02;1.67;;;1.57;;
12675;SDS011;63820;65.654;21.944;2023-08-31T08:34:47;1.50;;;1.40;;
12675;SDS011;63820;65.654;21.944;2023-08-31T08:37:31;1.50;;;1.40;;
12675;SDS011;63820;65.654;21.944;2023-08-31T08:40:18;1.53;;;1.43;;
12675;SDS011;63820;65.654;21.944;2023-08-31T08:43:04;2.30;;;1.43;;
12675;SDS011;63820;65.654;21.944;2023-08-31T08:45:50;1.53;;;1.43;;
12675;SDS011;63820;65.654;21.944;2023-08-31T08:48:36;1.80;;;1.67;;
12675;SDS011;63820;65.654;21.944;2023-08-31T08:51:22;1.47;;;1.37;;
12675;SDS011;63820;65.654;21.944;2023-08-31T08:54:07;1.90;;;1.53;;
12675;SDS011;63820;65.654;21.944;2023-08-31T08:56:51;1.60;;;1.50;;
12675;SDS011;63820;65.654;21.944;2023-08-31T08:59:35;1.50;;;1.40;;
12675;SDS011;63820;65.654;21.944;2023-08-31T09:02:19;1.33;;;1.20;;
12675;SDS011;63820;65.654;21.944;2023-08-31T09:05:03;1.60;;;1.50;;
12675;SDS011;63820;65.654;21.944;2023-08-31T09:08:01;1.47;;;1.33;;
12675;SDS011;63820;65.654;21.944;2023-08-31T09:10:55;1.50;;;1.40;;
12675;SDS011;63820;65.654;21.944;2023-08-31T09:13:42;1.40;;;1.30;;
12675;SDS011;63820;65.654;21.944;2023-08-31T09:16:26;1.30;;;1.20;;
12675;SDS011;63820;65.654;21.944;2023-08-31T09:19:21;1.40;;;1.30;;
12675;SDS011;63820;65.654;21.944;2023-08-31T09:22:07;1.20;;;1.10;;
12675;SDS011;63820;65.654;21.944;2023-08-31T09:24:54;1.13;;;1.10;;
12675;SDS011;63820;65.654;21.944;2023-08-31T09:27:38;0.80;;;0.80;;
12675;SDS011;63820;65.654;21.944;2023-08-31T09:30:24;1.30;;;1.20;;
12675;SDS011;63820;65.654;21.944;2023-08-31T09:33:09;1.00;;;1.00;;
12675;SDS011;63820;65.654;21.944;2023-08-31T09:35:56;1.10;;;1.00;;
12675;SDS011;63820;65.654;21.944;2023-08-31T09:38:42;1.30;;;1.20;;
12675;SDS011;63820;65.654;21.944;2023-08-31T09:41:27;1.30;;;1.20;;
12675;SDS011;63820;65.654;21.944;2023-08-31T09:44:15;1.20;;;1.10;;
12675;SDS011;63820;65.654;21.944;2023-08-31T09:47:00;1.30;;;1.20;;
12675;SDS011;63820;65.654;21.944;2023-08-31T09:49:46;1.17;;;1.07;;
12675;SDS011;63820;65.654;21.944;2023-08-31T09:52:30;1.20;;;1.10;;
12675;SDS011;63820;65.654;21.944;2023-08-31T09:55:15;1.98;;;1.10;;
12675;SDS011;63820;65.654;21.944;2023-08-31T09:58:02;1.17;;;1.15;;
12675;SDS011;63820;65.654;21.944;2023-08-31T10:00:50;1.30;;;1.20;;
12675;SDS011;63820;65.654;21.944;2023-08-31T10:03:36;2.75;;;1.35;;
12675;SDS011;63820;65.654;21.944;2023-08-31T10:06:21;1.05;;;1.05;;
12675;SDS011;63820;65.654;21.944;2023-08-31T10:09:06;1.50;;;1.40;;
12675;SDS011;63820;65.654;21.944;2023-08-31T10:11:53;1.23;;;1.13;;
12675;SDS011;63820;65.654;21.944;2023-08-31T10:14:38;1.25;;;1.15;;
12675;SDS011;63820;65.654;21.944;2023-08-31T10:17:23;1.40;;;1.30;;
12675;SDS011;63820;65.654;21.944;2023-08-31T10:20:08;1.50;;;1.30;;
12675;SDS011;63820;65.654;21.944;2023-08-31T10:22:55;1.73;;;1.40;;
12675;SDS011;63820;65.654;21.944;2023-08-31T10:28:38;2.13;;;1.30;;
12675;SDS011;63820;65.654;21.944;2023-08-31T10:31:24;1.40;;;1.30;;
12675;SDS011;63820;65.654;21.944;2023-08-31T10:34:12;1.50;;;1.40;;
12675;SDS011;63820;65.654;21.944;2023-08-31T10:36:57;1.37;;;1.27;;
12675;SDS011;63820;65.654;21.944;2023-08-31T10:39:41;1.40;;;1.30;;
12675;SDS011;63820;65.654;21.944;2023-08-31T10:42:25;1.40;;;1.30;;
12675;SDS011;63820;65.654;21.944;2023-08-31T10:45:09;1.47;;;1.37;;
12675;SDS011;63820;65.654;21.944;2023-08-31T10:47:54;1.30;;;1.20;;
12675;SDS011;63820;65.654;21.944;2023-08-31T10:50:45;1.37;;;1.27;;
12675;SDS011;63820;65.654;21.944;2023-08-31T10:53:33;1.60;;;1.50;;
12675;SDS011;63820;65.654;21.944;2023-08-31T10:56:19;1.60;;;1.50;;
12675;SDS011;63820;65.654;21.944;2023-08-31T10:59:03;1.73;;;1.63;;
12675;SDS011;63820;65.654;21.944;2023-08-31T11:01:51;2.00;;;1.43;;
12675;SDS011;63820;65.654;21.944;2023-08-31T11:05:01;1.60;;;1.50;;
12675;SDS011;63820;65.654;21.944;2023-08-31T11:07:52;1.50;;;1.40;;
12675;SDS011;63820;65.654;21.944;2023-08-31T11:10:36;1.90;;;1.70;;
12675;SDS011;63820;65.654;21.944;2023-08-31T11:13:21;1.60;;;1.50;;
12675;SDS011;63820;65.654;21.944;2023-08-31T11:16:07;1.20;;;1.10;;
12675;SDS011;63820;65.654;21.944;2023-08-31T11:18:51;1.50;;;1.40;;
12675;SDS011;63820;65.654;21.944;2023-08-31T11:21:38;1.30;;;1.20;;
12675;SDS011;63820;65.654;21.944;2023-08-31T11:24:22;1.30;;;1.20;;
12675;SDS011;63820;65.654;21.944;2023-08-31T11:27:10;1.30;;;1.20;;
12675;SDS011;63820;65.654;21.944;2023-08-31T11:29:54;1.37;;;1.27;;
12675;SDS011;63820;65.654;21.944;2023-08-31T11:32:43;1.60;;;1.50;;
12675;SDS011;63820;65.654;21.944;2023-08-31T11:35:30;1.40;;;1.30;;
12675;SDS011;63820;65.654;21.944;2023-08-31T11:38:19;1.40;;;1.30;;
12675;SDS011;63820;65.654;21.944;2023-08-31T11:41:03;1.60;;;1.50;;
12675;SDS011;63820;65.654;21.944;2023-08-31T11:43:48;2.10;;;1.60;;
12675;SDS011;63820;65.654;21.944;2023-08-31T11:46:33;1.23;;;1.13;;
12675;SDS011;63820;65.654;21.944;2023-08-31T11:49:18;1.47;;;1.30;;
12675;SDS011;63820;65.654;21.944;2023-08-31T11:52:03;1.50;;;1.40;;
12675;SDS011;63820;65.654;21.944;2023-08-31T11:54:47;1.60;;;1.50;;
12675;SDS011;63820;65.654;21.944;2023-08-31T11:57:37;1.60;;;1.50;;
12675;SDS011;63820;65.654;21.944;2023-08-31T12:00:21;1.70;;;1.60;;
12675;SDS011;63820;65.654;21.944;2023-08-31T12:03:07;1.40;;;1.30;;
12675;SDS011;63820;65.654;21.944;2023-08-31T12:05:52;1.30;;;1.20;;
12675;SDS011;63820;65.654;21.944;2023-08-31T12:08:38;1.50;;;1.40;;
12675;SDS011;63820;65.654;21.944;2023-08-31T12:11:22;1.53;;;1.43;;
12675;SDS011;63820;65.654;21.944;2023-08-31T12:14:27;1.57;;;1.47;;
12675;SDS011;63820;65.654;21.944;2023-08-31T12:17:11;1.70;;;1.60;;
12675;SDS011;63820;65.654;21.944;2023-08-31T12:20:04;1.23;;;1.13;;
12675;SDS011;63820;65.654;21.944;2023-08-31T12:22:50;1.87;;;1.30;;
12675;SDS011;63820;65.654;21.944;2023-08-31T12:25:34;1.53;;;1.43;;
12675;SDS011;63820;65.654;21.944;2023-08-31T12:28:18;1.40;;;1.30;;
12675;SDS011;63820;65.654;21.944;2023-08-31T12:31:03;1.50;;;1.40;;
12675;SDS011;63820;65.654;21.944;2023-08-31T12:33:48;1.50;;;1.40;;
12675;SDS011;63820;65.654;21.944;2023-08-31T12:36:33;1.50;;;1.40;;
12675;SDS011;63820;65.654;21.944;2023-08-31T12:39:17;2.20;;;1.27;;
12675;SDS011;63820;65.654;21.944;2023-08-31T12:42:02;1.27;;;1.17;;
12675;SDS011;63820;65.654;21.944;2023-08-31T12:44:46;1.63;;;1.53;;
12675;SDS011;63820;65.654;21.944;2023-08-31T12:47:31;1.50;;;1.40;;
12675;SDS011;63820;65.654;21.944;2023-08-31T12:50:15;1.47;;;1.37;;
12675;SDS011;63820;65.654;21.944;2023-08-31T12:52:59;1.27;;;1.17;;
12675;SDS011;63820;65.654;21.944;2023-08-31T12:55:43;1.50;;;1.40;;
12675;SDS011;63820;65.654;21.944;2023-08-31T12:58:27;1.30;;;1.20;;
12675;SDS011;63820;65.654;21.944;2023-08-31T13:01:11;1.40;;;1.30;;
12675;SDS011;63820;65.654;21.944;2023-08-31T13:03:56;1.57;;;1.40;;
12675;SDS011;63820;65.654;21.944;2023-08-31T13:06:39;1.50;;;1.40;;
12675;SDS011;63820;65.654;21.944;2023-08-31T13:09:23;1.63;;;1.53;;
12675;SDS011;63820;65.654;21.944;2023-08-31T13:12:08;1.50;;;1.40;;
12675;SDS011;63820;65.654;21.944;2023-08-31T13:14:52;1.30;;;1.20;;
12675;SDS011;63820;65.654;21.944;2023-08-31T13:17:36;1.67;;;1.57;;
12675;SDS011;63820;65.654;21.944;2023-08-31T13:20:21;1.43;;;1.33;;
12675;SDS011;63820;65.654;21.944;2023-08-31T13:23:06;1.73;;;1.40;;
12675;SDS011;63820;65.654;21.944;2023-08-31T13:25:50;2.30;;;1.33;;
12675;SDS011;63820;65.654;21.944;2023-08-31T13:28:35;2.20;;;1.30;;
12675;SDS011;63820;65.654;21.944;2023-08-31T13:31:19;1.70;;;1.60;;
12675;SDS011;63820;65.654;21.944;2023-08-31T13:34:03;2.17;;;1.60;;
12675;SDS011;63820;65.654;21.944;2023-08-31T13:36:49;1.80;;;1.70;;
12675;SDS011;63820;65.654;21.944;2023-08-31T13:39:34;1.73;;;1.63;;
12675;SDS011;63820;65.654;21.944;2023-08-31T13:42:23;1.80;;;1.70;;
12675;SDS011;63820;65.654;21.944;2023-08-31T13:45:07;1.63;;;1.50;;
12675;SDS011;63820;65.654;21.944;2023-08-31T13:47:51;1.50;;;1.40;;
12675;SDS011;63820;65.654;21.944;2023-08-31T13:50:35;1.90;;;1.80;;
12675;SDS011;63820;65.654;21.944;2023-08-31T13:53:20;1.87;;;1.70;;
12675;SDS011;63820;65.654;21.944;2023-08-31T13:56:04;2.40;;;1.80;;
12675;SDS011;63820;65.654;21.944;2023-08-31T13:58:48;1.67;;;1.57;;
12675;SDS011;63820;65.654;21.944;2023-08-31T14:01:32;1.67;;;1.57;;
12675;SDS011;63820;65.654;21.944;2023-08-31T14:04:16;1.77;;;1.67;;
12675;SDS011;63820;65.654;21.944;2023-08-31T14:07:00;2.00;;;1.80;;
12675;SDS011;63820;65.654;21.944;2023-08-31T14:09:44;2.17;;;1.80;;
12675;SDS011;63820;65.654;21.944;2023-08-31T14:12:28;1.90;;;1.80;;
12675;SDS011;63820;65.654;21.944;2023-08-31T14:15:12;1.80;;;1.70;;
12675;SDS011;63820;65.654;21.944;2023-08-31T14:17:57;2.33;;;1.87;;
12675;SDS011;63820;65.654;21.944;2023-08-31T14:20:40;1.70;;;1.60;;
12675;SDS011;63820;65.654;21.944;2023-08-31T14:23:28;1.97;;;1.83;;
12675;SDS011;63820;65.654;21.944;2023-08-31T14:26:13;1.77;;;1.67;;
12675;SDS011;63820;65.654;21.944;2023-08-31T14:28:57;2.27;;;1.90;;
12675;SDS011;63820;65.654;21.944;2023-08-31T14:31:41;2.30;;;2.10;;
12675;SDS011;63820;65.654;21.944;2023-08-31T14:34:25;1.97;;;1.77;;
12675;SDS011;63820;65.654;21.944;2023-08-31T14:37:09;3.40;;;1.97;;
12675;SDS011;63820;65.654;21.944;2023-08-31T14:39:53;1.90;;;1.70;;
12675;SDS011;63820;65.654;21.944;2023-08-31T14:42:37;1.77;;;1.67;;
12675;SDS011;63820;65.654;21.944;2023-08-31T14:45:22;1.77;;;1.67;;
12675;SDS011;63820;65.654;21.944;2023-08-31T14:48:07;2.10;;;1.90;;
12675;SDS011;63820;65.654;21.944;2023-08-31T14:50:51;1.70;;;1.60;;
12675;SDS011;63820;65.654;21.944;2023-08-31T14:53:35;1.67;;;1.57;;
12675;SDS011;63820;65.654;21.944;2023-08-31T14:56:22;1.90;;;1.73;;
12675;SDS011;63820;65.654;21.944;2023-08-31T14:59:06;2.03;;;1.60;;
12675;SDS011;63820;65.654;21.944;2023-08-31T15:01:51;2.93;;;1.90;;
12675;SDS011;63820;65.654;21.944;2023-08-31T15:04:35;1.87;;;1.77;;
12675;SDS011;63820;65.654;21.944;2023-08-31T15:07:19;1.87;;;1.77;;
12675;SDS011;63820;65.654;21.944;2023-08-31T15:10:03;2.00;;;1.80;;
12675;SDS011;63820;65.654;21.944;2023-08-31T15:12:48;1.80;;;1.70;;
12675;SDS011;63820;65.654;21.944;2023-08-31T15:15:34;1.80;;;1.70;;
12675;SDS011;63820;65.654;21.944;2023-08-31T15:18:18;2.43;;;2.23;;
12675;SDS011;63820;65.654;21.944;2023-08-31T15:21:02;1.90;;;1.80;;
12675;SDS011;63820;65.654;21.944;2023-08-31T15:23:47;2.07;;;1.87;;
12675;SDS011;63820;65.654;21.944;2023-08-31T15:26:30;1.80;;;1.60;;
12675;SDS011;63820;65.654;21.944;2023-08-31T15:29:15;1.50;;;1.40;;
12675;SDS011;63820;65.654;21.944;2023-08-31T15:32:00;1.90;;;1.80;;
12675;SDS011;63820;65.654;21.944;2023-08-31T15:34:45;1.70;;;1.60;;
12675;SDS011;63820;65.654;21.944;2023-08-31T15:37:29;1.60;;;1.40;;
12675;SDS011;63820;65.654;21.944;2023-08-31T15:40:13;2.10;;;1.90;;
12675;SDS011;63820;65.654;21.944;2023-08-31T15:42:58;2.00;;;1.80;;
12675;SDS011;63820;65.654;21.944;2023-08-31T15:45:45;2.10;;;1.90;;
12675;SDS011;63820;65.654;21.944;2023-08-31T15:48:33;2.07;;;1.80;;
12675;SDS011;63820;65.654;21.944;2023-08-31T15:51:17;2.10;;;1.80;;
12675;SDS011;63820;65.654;21.944;2023-08-31T15:54:01;2.43;;;2.20;;
12675;SDS011;63820;65.654;21.944;2023-08-31T15:56:47;2.50;;;1.77;;
12675;SDS011;63820;65.654;21.944;2023-08-31T15:59:31;2.00;;;1.73;;
12675;SDS011;63820;65.654;21.944;2023-08-31T16:02:15;2.00;;;1.80;;
12675;SDS011;63820;65.654;21.944;2023-08-31T16:05:06;1.93;;;1.77;;
12675;SDS011;63820;65.654;21.944;2023-08-31T16:07:51;2.20;;;2.00;;
12675;SDS011;63820;65.654;21.944;2023-08-31T16:10:35;1.90;;;1.70;;
12675;SDS011;63820;65.654;21.944;2023-08-31T16:13:19;1.90;;;1.80;;
12675;SDS011;63820;65.654;21.944;2023-08-31T16:16:04;1.80;;;1.70;;
12675;SDS011;63820;65.654;21.944;2023-08-31T16:18:48;2.37;;;1.60;;
12675;SDS011;63820;65.654;21.944;2023-08-31T16:21:33;1.90;;;1.80;;
12675;SDS011;63820;65.654;21.944;2023-08-31T16:24:17;1.73;;;1.63;;
12675;SDS011;63820;65.654;21.944;2023-08-31T16:27:01;2.20;;;2.00;;
12675;SDS011;63820;65.654;21.944;2023-08-31T16:29:46;1.70;;;1.60;;